createdAt,value
2019-02-21T00:01:53.431Z,15.97
2019-02-21T00:04:22.747Z,15.87
2019-02-21T00:06:52.043Z,17.57
2019-02-21T00:09:21.391Z,16.50
2019-02-21T00:11:50.798Z,16.03
2019-02-21T00:14:20.108Z,15.40
2019-02-21T00:16:49.406Z,15.70
2019-02-21T00:19:18.714Z,15.77
2019-02-21T00:21:48.010Z,15.57
2019-02-21T00:24:17.350Z,17.03
2019-02-21T00:26:46.646Z,15.83
2019-02-21T00:29:15.958Z,17.07
2019-02-21T00:31:45.299Z,15.93
2019-02-21T00:34:14.599Z,15.97
2019-02-21T00:36:44.010Z,15.63
2019-02-21T00:39:13.315Z,15.73
2019-02-21T00:41:42.614Z,16.27
2019-02-21T00:44:11.915Z,15.83
2019-02-21T00:46:41.218Z,17.10
2019-02-21T00:49:10.522Z,15.83
2019-02-21T00:51:39.896Z,15.33
2019-02-21T00:54:09.226Z,16.60
2019-02-21T00:56:38.526Z,15.10
2019-02-21T00:59:07.850Z,15.57
2019-02-21T01:01:37.139Z,16.20
2019-02-21T01:04:06.717Z,15.03
2019-02-21T01:06:36.033Z,15.53
2019-02-21T01:09:05.930Z,16.83
2019-02-21T01:11:35.304Z,14.97
2019-02-21T01:14:04.671Z,15.23
2019-02-21T01:16:34.027Z,15.63
2019-02-21T01:19:03.337Z,14.83
2019-02-21T01:21:32.650Z,15.60
2019-02-21T01:24:04.724Z,15.70
2019-02-21T01:26:32.954Z,15.97
2019-02-21T01:29:02.256Z,15.27
2019-02-21T01:31:31.551Z,14.93
2019-02-21T01:34:00.884Z,14.97
2019-02-21T01:36:30.190Z,14.77
2019-02-21T01:38:59.494Z,16.10
2019-02-21T01:41:28.798Z,14.80
2019-02-21T01:43:58.099Z,16.50
2019-02-21T01:46:27.418Z,16.07
2019-02-21T01:48:56.718Z,15.67
2019-02-21T01:51:26.088Z,16.13
2019-02-21T01:53:55.386Z,15.90
2019-02-21T01:56:24.688Z,15.90
2019-02-21T01:58:53.988Z,16.63
2019-02-21T02:01:23.296Z,17.20
2019-02-21T02:03:52.599Z,18.40
2019-02-21T02:06:21.895Z,17.70
2019-02-21T02:08:51.187Z,17.50
2019-02-21T02:11:20.525Z,17.73
2019-02-21T02:13:49.803Z,18.77
2019-02-21T02:16:19.275Z,18.80
2019-02-21T02:18:48.574Z,18.70
2019-02-21T02:21:17.971Z,17.67
2019-02-21T02:23:47.335Z,19.43
2019-02-21T02:26:16.643Z,18.97
2019-02-21T02:28:45.960Z,18.17
2019-02-21T02:31:22.764Z,20.20
2019-02-21T02:33:46.256Z,19.50
2019-02-21T02:36:15.563Z,21.30
2019-02-21T02:38:45.023Z,20.03
2019-02-21T02:41:14.803Z,18.57
2019-02-21T02:43:44.468Z,18.67
2019-02-21T02:46:13.770Z,19.07
2019-02-21T02:48:43.069Z,19.43
2019-02-21T02:51:12.371Z,18.40
2019-02-21T02:53:41.684Z,19.93
2019-02-21T02:56:11.057Z,20.37
2019-02-21T02:58:40.360Z,20.00
2019-02-21T03:01:09.650Z,19.87
2019-02-21T03:03:39.216Z,19.80
2019-02-21T03:06:08.523Z,20.07
2019-02-21T03:08:37.825Z,20.60
2019-02-21T03:11:07.135Z,20.23
2019-02-21T03:13:36.436Z,20.20
2019-02-21T03:16:05.734Z,21.83
2019-02-21T03:18:35.100Z,20.73
2019-02-21T03:21:04.410Z,21.30
2019-02-21T03:23:33.700Z,20.67
2019-02-21T03:26:03.023Z,21.77
2019-02-21T03:28:32.299Z,21.93
2019-02-21T03:31:01.613Z,22.03
2019-02-21T03:33:30.909Z,22.20
2019-02-21T03:36:01.295Z,21.43
2019-02-21T03:38:34.842Z,20.67
2019-02-21T03:41:01.659Z,22.70
2019-02-21T03:43:30.954Z,22.13
2019-02-21T03:46:00.264Z,21.40
2019-02-21T03:48:29.558Z,22.27
2019-02-21T03:50:58.880Z,22.30
2019-02-21T03:53:28.195Z,21.00
2019-02-21T03:55:57.551Z,21.13
2019-02-21T03:58:27.174Z,21.73
2019-02-21T04:00:56.479Z,21.00
2019-02-21T04:03:25.842Z,21.37
2019-02-21T04:05:55.314Z,21.17
2019-02-21T04:08:24.610Z,21.43
2019-02-21T04:10:53.920Z,20.90
2019-02-21T04:13:23.222Z,20.37
2019-02-21T04:15:52.527Z,21.10
2019-02-21T04:18:21.822Z,21.33
2019-02-21T04:20:51.128Z,20.47
2019-02-21T04:23:20.421Z,21.07
2019-02-21T04:25:49.722Z,21.70
2019-02-21T04:28:19.119Z,20.93
2019-02-21T04:30:48.423Z,22.13
2019-02-21T04:33:17.728Z,23.77
2019-02-21T04:35:47.028Z,22.03
2019-02-21T04:38:16.335Z,21.33
2019-02-21T04:40:45.628Z,22.20
2019-02-21T04:43:14.939Z,21.10
2019-02-21T04:45:44.234Z,22.00
2019-02-21T04:48:13.534Z,22.77
2019-02-21T04:50:42.834Z,21.13
2019-02-21T04:53:12.138Z,22.23
2019-02-21T04:55:41.436Z,21.70
2019-02-21T04:58:10.743Z,22.17
2019-02-21T05:00:40.039Z,21.50
2019-02-21T05:03:09.420Z,22.23
2019-02-21T05:05:38.720Z,21.80
2019-02-21T05:08:08.017Z,22.10
2019-02-21T05:10:38.291Z,22.43
2019-02-21T05:13:07.589Z,20.90
2019-02-21T05:15:36.891Z,21.63
2019-02-21T05:18:06.203Z,22.20
2019-02-21T05:20:36.571Z,21.10
2019-02-21T05:23:05.895Z,21.70
2019-02-21T05:25:35.191Z,21.90
2019-02-21T05:28:06.310Z,22.53
2019-02-21T05:30:36.429Z,21.00
2019-02-21T05:33:10.443Z,21.60
2019-02-21T05:35:44.043Z,20.57
2019-02-21T05:38:14.995Z,21.80
2019-02-21T05:40:45.927Z,22.77
2019-02-21T05:43:17.859Z,21.60
2019-02-21T05:45:48.774Z,24.07
2019-02-21T05:48:19.720Z,23.73
2019-02-21T05:50:59.411Z,23.17
2019-02-21T05:53:39.518Z,22.70
2019-02-21T05:56:13.518Z,22.00
2019-02-21T05:58:59.747Z,22.03
2019-02-21T06:01:45.747Z,21.97
2019-02-21T06:04:28.971Z,22.13
2019-02-21T06:06:59.912Z,22.63
2019-02-21T06:09:39.926Z,22.77
2019-02-21T06:12:13.511Z,22.50
2019-02-21T06:14:47.162Z,23.47
2019-02-21T06:17:20.967Z,22.50
2019-02-21T06:19:57.782Z,23.13
2019-02-21T06:22:28.726Z,22.40
2019-02-21T06:24:59.671Z,22.87
2019-02-21T06:27:39.399Z,21.83
2019-02-21T06:30:10.717Z,23.13
2019-02-21T06:32:40.815Z,22.80
2019-02-21T06:35:11.035Z,24.23
2019-02-21T06:37:40.338Z,23.53
2019-02-21T06:40:09.812Z,23.20
2019-02-21T06:42:39.111Z,23.37
2019-02-21T06:45:08.554Z,24.03
2019-02-21T06:47:37.864Z,23.73
2019-02-21T06:50:07.163Z,24.40
2019-02-21T06:52:36.455Z,24.20
2019-02-21T06:55:05.935Z,24.63
2019-02-21T06:57:35.239Z,23.47
2019-02-21T07:00:05.794Z,24.23
2019-02-21T07:02:35.096Z,24.30
2019-02-21T07:05:04.834Z,25.07
2019-02-21T07:07:34.131Z,24.67
2019-02-21T07:10:04.111Z,23.73
2019-02-21T07:12:33.416Z,24.77
2019-02-21T07:15:02.714Z,24.60
2019-02-21T07:17:32.006Z,24.30
2019-02-21T07:20:01.310Z,24.10
2019-02-21T07:22:30.612Z,23.80
2019-02-21T07:25:01.786Z,24.00
2019-02-21T07:27:31.075Z,24.63
2019-02-21T07:30:01.457Z,23.67
2019-02-21T07:32:31.419Z,23.50
2019-02-21T07:35:00.787Z,24.33
2019-02-21T07:37:30.082Z,24.17
2019-02-21T07:39:59.405Z,24.10
2019-02-21T07:42:28.711Z,24.23
2019-02-21T07:44:59.692Z,24.63
2019-02-21T07:47:29.182Z,23.90
2019-02-21T07:49:58.478Z,24.00
2019-02-21T07:52:27.782Z,24.33
2019-02-21T07:55:01.890Z,24.87
2019-02-21T07:57:28.095Z,23.50
2019-02-21T07:59:57.400Z,23.37
2019-02-21T08:02:26.714Z,24.27
2019-02-21T08:04:56.052Z,24.47
2019-02-21T08:07:26.336Z,22.77
2019-02-21T08:09:55.940Z,22.50
2019-02-21T08:12:26.312Z,23.97
2019-02-21T08:14:56.393Z,24.37
2019-02-21T08:17:27.870Z,23.67
2019-02-21T08:20:07.493Z,22.90
2019-02-21T08:22:27.800Z,22.93
2019-02-21T08:24:57.091Z,22.90
2019-02-21T08:27:26.399Z,22.90
2019-02-21T08:29:55.758Z,21.70
2019-02-21T08:32:26.716Z,21.33
2019-02-21T08:34:56.043Z,21.70
2019-02-21T08:37:25.346Z,23.13
2019-02-21T08:39:54.643Z,22.20
2019-02-21T08:42:23.949Z,20.87
2019-02-21T08:44:53.247Z,21.20
2019-02-21T08:47:22.555Z,23.00
2019-02-21T08:49:51.850Z,22.13
2019-02-21T08:52:21.164Z,20.97
2019-02-21T08:54:59.779Z,22.37
2019-02-21T08:57:21.511Z,21.80
2019-02-21T08:59:50.843Z,21.57
2019-02-21T09:02:20.142Z,22.77
2019-02-21T09:04:49.444Z,23.57
2019-02-21T09:07:18.746Z,20.90
2019-02-21T09:09:48.057Z,22.00
2019-02-21T09:12:17.355Z,20.50
2019-02-21T09:14:46.659Z,20.30
2019-02-21T09:17:15.983Z,21.00
2019-02-21T09:19:45.296Z,21.33
2019-02-21T09:22:14.587Z,22.00
2019-02-21T09:24:43.898Z,23.00
2019-02-21T09:27:13.208Z,21.07
2019-02-21T09:29:42.518Z,21.20
2019-02-21T09:32:11.823Z,20.43
2019-02-21T09:34:42.102Z,20.60
2019-02-21T09:37:11.403Z,22.00
2019-02-21T09:39:40.710Z,22.37
2019-02-21T09:42:10.084Z,21.53
2019-02-21T09:44:39.394Z,22.27
2019-02-21T09:47:08.697Z,21.60
2019-02-21T09:49:38.014Z,22.03
2019-02-21T09:52:07.315Z,21.33
2019-02-21T09:54:36.635Z,21.50
2019-02-21T09:57:13.354Z,20.77
2019-02-21T09:59:36.947Z,21.73
2019-02-21T10:02:06.251Z,22.07
2019-02-21T10:04:35.578Z,20.97
2019-02-21T10:07:04.871Z,19.67
2019-02-21T10:09:34.183Z,20.73
2019-02-21T10:12:03.483Z,21.40
2019-02-21T10:14:32.875Z,19.90
2019-02-21T10:17:02.179Z,21.27
2019-02-21T10:19:31.495Z,19.53
2019-02-21T10:22:00.802Z,18.67
2019-02-21T10:24:30.111Z,19.20
2019-02-21T10:26:59.415Z,20.10
2019-02-21T10:29:29.756Z,20.83
2019-02-21T10:31:59.306Z,21.27
2019-02-21T10:34:28.616Z,20.00
2019-02-21T10:36:57.923Z,21.00
2019-02-21T10:39:27.231Z,20.77
2019-02-21T10:41:56.539Z,20.53
2019-02-21T10:44:25.850Z,21.53
2019-02-21T10:46:55.147Z,21.40
2019-02-21T10:49:25.598Z,21.97
2019-02-21T10:51:54.907Z,20.77
2019-02-21T10:54:25.186Z,21.23
2019-02-21T10:56:54.490Z,20.43
2019-02-21T10:59:23.804Z,20.53
2019-02-21T11:01:54.181Z,21.07
2019-02-21T11:04:24.375Z,21.17
2019-02-21T11:06:53.666Z,23.27
2019-02-21T11:09:23.012Z,23.23
2019-02-21T11:11:52.368Z,20.23
2019-02-21T11:14:21.706Z,22.57
2019-02-21T11:16:51.069Z,21.70
2019-02-21T11:19:20.375Z,21.47
2019-02-21T11:21:49.685Z,20.80
2019-02-21T11:24:19.069Z,20.77
2019-02-21T11:26:48.379Z,22.50
2019-02-21T11:29:17.671Z,22.20
2019-02-21T11:31:46.986Z,22.63
2019-02-21T11:34:16.295Z,21.17
2019-02-21T11:36:45.611Z,22.67
2019-02-21T11:39:14.909Z,21.30
2019-02-21T11:41:44.235Z,22.07
2019-02-21T11:44:13.537Z,22.90
2019-02-21T11:46:42.847Z,21.87
2019-02-21T11:49:12.218Z,21.57
2019-02-21T11:51:41.527Z,22.63
2019-02-21T11:54:10.831Z,22.77
2019-02-21T11:56:40.145Z,23.43
2019-02-21T11:59:09.441Z,23.13
2019-02-21T12:01:39.700Z,23.20
2019-02-21T12:04:09.232Z,23.70
2019-02-21T12:06:38.683Z,23.00
2019-02-21T12:09:10.899Z,23.20
2019-02-21T12:11:40.279Z,22.30
2019-02-21T12:14:09.581Z,23.03
2019-02-21T12:16:38.908Z,22.83
2019-02-21T12:19:08.202Z,23.30
2019-02-21T12:21:37.528Z,22.27
2019-02-21T12:24:06.826Z,23.27
2019-02-21T12:26:36.133Z,23.03
2019-02-21T12:29:05.440Z,22.73
2019-02-21T12:31:34.753Z,22.90
2019-02-21T12:34:04.056Z,21.63
2019-02-21T12:36:33.367Z,21.83
2019-02-21T12:39:02.671Z,23.03
2019-02-21T12:41:33.600Z,23.63
2019-02-21T12:44:02.910Z,22.23
2019-02-21T12:46:32.213Z,22.30
2019-02-21T12:49:01.573Z,21.90
2019-02-21T12:51:30.889Z,21.20
2019-02-21T12:54:00.191Z,21.90
2019-02-21T12:56:29.499Z,22.37
2019-02-21T12:58:58.813Z,21.43
2019-02-21T13:01:28.116Z,23.50
2019-02-21T13:03:57.432Z,23.83
2019-02-21T13:06:26.740Z,21.60
2019-02-21T13:08:56.059Z,21.60
2019-02-21T13:11:25.372Z,24.53
2019-02-21T13:13:54.675Z,23.03
2019-02-21T13:16:24.013Z,22.97
2019-02-21T13:18:53.366Z,22.50
2019-02-21T13:21:22.787Z,23.73
2019-02-21T13:23:52.298Z,30.60
2019-02-21T13:26:21.904Z,28.10
2019-02-21T13:28:51.459Z,27.20
2019-02-21T13:31:21.006Z,22.57
2019-02-21T13:33:50.398Z,29.17
2019-02-21T13:36:19.737Z,22.40
2019-02-21T13:38:49.046Z,23.80
2019-02-21T13:41:18.350Z,23.83
2019-02-21T13:43:47.851Z,33.00
2019-02-21T13:46:18.772Z,29.70
2019-02-21T13:48:48.131Z,52.67
2019-02-21T13:51:17.444Z,29.37
2019-02-21T13:53:46.884Z,26.43
2019-02-21T13:56:16.246Z,21.17
2019-02-21T13:58:45.584Z,23.03
2019-02-21T14:01:15.265Z,27.17
2019-02-21T14:03:44.610Z,30.20
2019-02-21T14:06:13.990Z,29.00
2019-02-21T14:08:43.375Z,26.40
2019-02-21T14:11:12.679Z,30.70
2019-02-21T14:13:42.474Z,28.47
2019-02-21T14:16:11.891Z,23.00
2019-02-21T14:18:41.240Z,28.93
2019-02-21T14:21:10.525Z,22.37
2019-02-21T14:23:39.835Z,23.90
2019-02-21T14:26:09.143Z,37.40
2019-02-21T14:28:39.539Z,23.47
2019-02-21T14:31:09.019Z,23.73
2019-02-21T14:33:38.340Z,27.97
2019-02-21T14:36:15.121Z,24.00
2019-02-21T14:38:40.182Z,28.83
2019-02-21T14:41:09.560Z,26.77
2019-02-21T14:43:38.860Z,27.13
2019-02-21T14:46:08.166Z,27.47
2019-02-21T14:48:37.544Z,27.00
2019-02-21T14:51:06.934Z,29.77
2019-02-21T14:53:36.231Z,30.77
2019-02-21T14:56:05.542Z,26.83
2019-02-21T14:58:35.301Z,27.37
2019-02-21T15:01:05.555Z,26.87
2019-02-21T15:03:34.854Z,28.73
2019-02-21T15:06:04.166Z,27.70
2019-02-21T15:08:33.534Z,26.10
2019-02-21T15:11:02.868Z,24.63
2019-02-21T15:13:32.183Z,25.83
2019-02-21T15:16:01.504Z,27.03
2019-02-21T15:18:30.802Z,40.20
2019-02-21T15:21:00.128Z,24.83
2019-02-21T15:23:29.491Z,35.03
2019-02-21T15:25:58.806Z,32.53
2019-02-21T15:28:28.106Z,28.30
2019-02-21T15:30:57.419Z,29.57
2019-02-21T15:33:26.715Z,34.27
2019-02-21T15:35:56.072Z,30.03
2019-02-21T15:38:25.547Z,33.00
2019-02-21T15:40:54.855Z,28.07
2019-02-21T15:43:24.207Z,32.87
2019-02-21T15:45:53.546Z,30.43
2019-02-21T15:48:22.839Z,30.40
2019-02-21T15:50:52.167Z,27.30
2019-02-21T15:53:21.650Z,36.53
2019-02-21T15:55:50.967Z,27.30
2019-02-21T15:58:20.282Z,28.33
2019-02-21T16:00:49.576Z,28.83
2019-02-21T16:03:18.883Z,33.97
2019-02-21T16:05:48.176Z,27.00
2019-02-21T16:08:17.483Z,26.30
2019-02-21T16:10:46.796Z,44.77
2019-02-21T16:13:16.444Z,26.17
2019-02-21T16:15:46.357Z,23.53
2019-02-21T16:18:15.710Z,31.13
2019-02-21T16:20:45.030Z,23.77
2019-02-21T16:23:14.337Z,29.30
2019-02-21T16:25:43.635Z,24.33
2019-02-21T16:28:12.958Z,28.43
2019-02-21T16:30:42.404Z,25.63
2019-02-21T16:33:11.727Z,27.17
2019-02-21T16:35:41.034Z,22.97
2019-02-21T16:38:10.335Z,22.40
2019-02-21T16:40:39.628Z,22.60
2019-02-21T16:43:08.944Z,21.77
2019-02-21T16:45:43.440Z,22.00
2019-02-21T16:48:09.257Z,21.97
2019-02-21T16:50:38.536Z,21.77
2019-02-21T16:53:07.847Z,22.40
2019-02-21T16:55:37.138Z,20.60
2019-02-21T16:58:06.454Z,21.87
2019-02-21T17:00:49.850Z,23.47
2019-02-21T17:03:06.746Z,24.50
2019-02-21T17:05:36.039Z,20.27
2019-02-21T17:08:05.352Z,24.77
2019-02-21T17:10:34.653Z,19.53
2019-02-21T17:13:03.965Z,20.93
2019-02-21T17:15:33.384Z,29.90
2019-02-21T17:18:03.821Z,19.83
2019-02-21T17:20:33.484Z,20.90
2019-02-21T17:23:02.791Z,22.97
2019-02-21T17:25:32.094Z,27.17
2019-02-21T17:28:01.406Z,30.57
2019-02-21T17:30:31.767Z,24.20
2019-02-21T17:33:01.080Z,23.33
2019-02-21T17:35:31.550Z,22.70
2019-02-21T17:38:00.967Z,26.33
2019-02-21T17:40:31.331Z,23.00
2019-02-21T17:43:00.643Z,20.97
2019-02-21T17:45:31.387Z,25.60
2019-02-21T17:48:01.447Z,21.13
2019-02-21T17:50:31.359Z,21.13
2019-02-21T17:53:00.676Z,27.37
2019-02-21T17:55:30.151Z,23.07
2019-02-21T17:57:59.452Z,22.43
2019-02-21T18:00:30.398Z,21.87
2019-02-21T18:02:59.710Z,21.07
2019-02-21T18:05:29.014Z,21.30
2019-02-21T18:07:58.319Z,21.60
2019-02-21T18:10:27.614Z,22.37
2019-02-21T18:12:56.987Z,22.60
2019-02-21T18:15:26.459Z,20.93
2019-02-21T18:17:55.753Z,21.03
2019-02-21T18:20:25.085Z,19.93
2019-02-21T18:22:54.367Z,20.07
2019-02-21T18:25:26.763Z,19.90
2019-02-21T18:27:56.057Z,19.33
2019-02-21T18:30:25.368Z,20.07
2019-02-21T18:32:54.662Z,18.90
2019-02-21T18:35:24.930Z,18.00
2019-02-21T18:37:54.231Z,19.17
2019-02-21T18:40:25.169Z,17.57
2019-02-21T18:42:54.475Z,17.00
2019-02-21T18:45:23.947Z,17.80
2019-02-21T18:47:53.251Z,17.40
2019-02-21T18:50:22.571Z,16.47
2019-02-21T18:52:51.930Z,16.00
2019-02-21T18:55:21.240Z,14.70
2019-02-21T18:57:50.630Z,15.23
2019-02-21T19:00:22.553Z,15.07
2019-02-21T19:02:51.857Z,15.20
2019-02-21T19:05:21.699Z,14.40
2019-02-21T19:08:00.498Z,14.47
2019-02-21T19:10:23.240Z,15.73
2019-02-21T19:12:52.540Z,14.23
2019-02-21T19:15:22.494Z,15.97
2019-02-21T19:17:51.782Z,15.83
2019-02-21T19:20:22.341Z,14.50
2019-02-21T19:22:51.631Z,15.77
2019-02-21T19:25:20.948Z,14.87
2019-02-21T19:27:50.267Z,14.67
2019-02-21T19:30:25.824Z,15.10
2019-02-21T19:32:55.242Z,15.20
2019-02-21T19:35:24.714Z,15.20
2019-02-21T19:37:54.025Z,15.87
2019-02-21T19:40:23.314Z,15.53
2019-02-21T19:42:52.628Z,15.80
2019-02-21T19:45:21.947Z,15.60
2019-02-21T19:47:51.254Z,15.87
2019-02-21T19:50:20.560Z,15.40
2019-02-21T19:52:49.955Z,16.23
2019-02-21T19:55:19.310Z,16.77
2019-02-21T19:57:48.691Z,17.23
2019-02-21T20:00:24.406Z,17.53
2019-02-21T20:02:54.246Z,17.00
2019-02-21T20:05:23.619Z,17.10
2019-02-21T20:07:54.127Z,17.53
2019-02-21T20:10:23.562Z,17.97
2019-02-21T20:12:52.939Z,18.00
2019-02-21T20:15:22.407Z,17.37
2019-02-21T20:17:51.706Z,18.77
2019-02-21T20:20:26.299Z,18.43
2019-02-21T20:22:55.606Z,19.17
2019-02-21T20:25:24.922Z,19.23
2019-02-21T20:27:54.244Z,18.10
2019-02-21T20:30:23.706Z,19.37
2019-02-21T20:32:53.015Z,19.23
2019-02-21T20:35:22.378Z,19.33
2019-02-21T20:37:51.684Z,20.47
2019-02-21T20:40:21.044Z,19.67
2019-02-21T20:42:50.468Z,19.40
2019-02-21T20:45:20.917Z,20.30
2019-02-21T20:47:50.207Z,18.80
2019-02-21T20:50:19.560Z,20.07
2019-02-21T20:52:48.915Z,19.83
2019-02-21T20:55:18.252Z,20.63
2019-02-21T20:57:48.524Z,20.20
2019-02-21T21:00:18.367Z,21.20
2019-02-21T21:02:48.800Z,20.80
2019-02-21T21:05:18.103Z,22.07
2019-02-21T21:07:47.642Z,22.00
2019-02-21T21:10:17.435Z,22.13
2019-02-21T21:12:46.821Z,23.27
2019-02-21T21:15:16.143Z,22.60
2019-02-21T21:17:45.447Z,22.53
2019-02-21T21:20:17.394Z,22.50
2019-02-21T21:22:46.975Z,21.50
2019-02-21T21:25:17.557Z,25.00
2019-02-21T21:28:06.223Z,24.90
2019-02-21T21:30:35.544Z,27.03
2019-02-21T21:33:04.848Z,26.23
2019-02-21T21:35:34.167Z,26.10
2019-02-21T21:38:03.469Z,25.57
2019-02-21T21:40:32.778Z,26.60
2019-02-21T21:43:02.071Z,25.80
2019-02-21T21:45:31.374Z,25.70
2019-02-21T21:48:00.677Z,26.10
2019-02-21T21:50:29.975Z,27.03
2019-02-21T21:52:59.266Z,27.90
2019-02-21T21:55:28.573Z,28.27
2019-02-21T21:57:57.876Z,28.13
2019-02-21T22:00:27.247Z,29.87
2019-02-21T22:02:56.546Z,27.47
2019-02-21T22:05:25.924Z,27.37
2019-02-21T22:07:55.226Z,29.80
2019-02-21T22:10:24.542Z,27.97
2019-02-21T22:12:53.838Z,27.87
2019-02-21T22:15:24.351Z,28.70
2019-02-21T22:17:53.652Z,30.53
2019-02-21T22:20:22.976Z,28.50
2019-02-21T22:22:52.302Z,28.73
2019-02-21T22:25:21.599Z,29.87
2019-02-21T22:27:50.900Z,29.67
2019-02-21T22:30:20.871Z,30.13
2019-02-21T22:32:50.187Z,30.17
2019-02-21T22:35:19.471Z,28.17
2019-02-21T22:37:48.777Z,29.57
2019-02-21T22:40:19.411Z,29.00
2019-02-21T22:42:48.713Z,29.10
2019-02-21T22:45:18.012Z,28.90
2019-02-21T22:47:47.314Z,28.73
2019-02-21T22:50:17.754Z,27.73
2019-02-21T22:52:47.076Z,29.37
2019-02-21T22:55:16.370Z,28.50
2019-02-21T22:57:45.680Z,28.73
2019-02-21T23:00:50.958Z,28.40
2019-02-21T23:03:22.830Z,27.93
2019-02-21T23:06:17.707Z,28.90
2019-02-21T23:08:51.975Z,28.43
2019-02-21T23:11:21.915Z,27.70
2019-02-21T23:13:51.485Z,26.70
2019-02-21T23:16:20.837Z,26.83
2019-02-21T23:18:50.139Z,28.63
2019-02-21T23:21:19.463Z,26.63
2019-02-21T23:23:48.773Z,26.97
2019-02-21T23:26:18.063Z,27.07
2019-02-21T23:28:47.369Z,26.83
2019-02-21T23:31:16.683Z,25.73
2019-02-21T23:33:50.560Z,24.67
2019-02-21T23:36:19.865Z,24.47
2019-02-21T23:38:49.166Z,24.63
2019-02-21T23:41:18.467Z,26.17
2019-02-21T23:43:47.771Z,22.20
2019-02-21T23:46:17.071Z,26.47
2019-02-21T23:48:46.387Z,24.47
2019-02-21T23:51:15.694Z,23.43
2019-02-21T23:53:45.012Z,21.83
2019-02-21T23:56:14.303Z,20.80
2019-02-21T23:58:43.612Z,20.10
